sensor_id;sensor_type;location;lat;lon;timestamp;pressure;altitude;pressure_sealevel;temperature;humidity
5905;BME280;2978;42.012;24.880;2023-02-02T00:01:55;98774.56;;;7.68;44.70
5905;BME280;2978;42.012;24.880;2023-02-02T00:04:27;98773.66;;;7.63;44.74
5905;BME280;2978;42.012;24.880;2023-02-02T00:06:53;98767.94;;;7.64;44.55
5905;BME280;2978;42.012;24.880;2023-02-02T00:09:19;98762.16;;;7.61;44.88
5905;BME280;2978;42.012;24.880;2023-02-02T00:11:46;98777.66;;;7.77;44.71
5905;BME280;2978;42.012;24.880;2023-02-02T00:14:13;98774.97;;;7.82;44.21
5905;BME280;2978;42.012;24.880;2023-02-02T00:16:49;98780.97;;;7.79;44.58
5905;BME280;2978;42.012;24.880;2023-02-02T00:19:26;98791.91;;;7.79;44.18
5905;BME280;2978;42.012;24.880;2023-02-02T00:21:53;98779.19;;;7.68;44.70
5905;BME280;2978;42.012;24.880;2023-02-02T00:24:19;98789.34;;;7.72;45.43
5905;BME280;2978;42.012;24.880;2023-02-02T00:26:50;98823.28;;;7.71;44.60
5905;BME280;2978;42.012;24.880;2023-02-02T00:29:21;98834.13;;;7.61;44.91
5905;BME280;2978;42.012;24.880;2023-02-02T00:31:47;98829.31;;;7.52;45.17
5905;BME280;2978;42.012;24.880;2023-02-02T00:34:14;98827.09;;;7.49;44.86
5905;BME280;2978;42.012;24.880;2023-02-02T00:36:40;98822.88;;;7.41;45.21
5905;BME280;2978;42.012;24.880;2023-02-02T00:39:07;98829.13;;;7.37;45.83
5905;BME280;2978;42.012;24.880;2023-02-02T00:41:33;98829.06;;;7.32;46.13
5905;BME280;2978;42.012;24.880;2023-02-02T00:43:59;98819.25;;;7.36;45.78
5905;BME280;2978;42.012;24.880;2023-02-02T00:46:42;98824.06;;;7.29;45.64
5905;BME280;2978;42.012;24.880;2023-02-02T00:49:08;98818.53;;;7.24;46.81
5905;BME280;2978;42.012;24.880;2023-02-02T00:51:35;98829.16;;;7.20;46.07
5905;BME280;2978;42.012;24.880;2023-02-02T00:54:01;98835.59;;;7.31;46.25
5905;BME280;2978;42.012;24.880;2023-02-02T00:56:26;98835.19;;;7.39;46.44
5905;BME280;2978;42.012;24.880;2023-02-02T00:58:52;98828.16;;;7.26;46.73
5905;BME280;2978;42.012;24.880;2023-02-02T01:01:18;98826.13;;;7.38;45.78
5905;BME280;2978;42.012;24.880;2023-02-02T01:03:46;98820.63;;;7.55;45.69
5905;BME280;2978;42.012;24.880;2023-02-02T01:06:12;98820.19;;;7.63;45.41
5905;BME280;2978;42.012;24.880;2023-02-02T01:08:38;98815.72;;;7.57;45.75
5905;BME280;2978;42.012;24.880;2023-02-02T01:11:04;98816.59;;;7.62;46.10
5905;BME280;2978;42.012;24.880;2023-02-02T01:13:30;98819.66;;;7.66;45.20
5905;BME280;2978;42.012;24.880;2023-02-02T01:15:56;98826.16;;;7.60;45.46
5905;BME280;2978;42.012;24.880;2023-02-02T01:18:22;98814.06;;;7.56;46.26
5905;BME280;2978;42.012;24.880;2023-02-02T01:20:59;98824.38;;;7.70;45.83
5905;BME280;2978;42.012;24.880;2023-02-02T01:23:25;98814.81;;;7.73;45.57
5905;BME280;2978;42.012;24.880;2023-02-02T01:25:55;98817.81;;;7.71;45.64
5905;BME280;2978;42.012;24.880;2023-02-02T01:28:21;98821.19;;;7.57;46.50
5905;BME280;2978;42.012;24.880;2023-02-02T01:30:47;98823.22;;;7.45;46.45
5905;BME280;2978;42.012;24.880;2023-02-02T01:33:13;98813.47;;;7.32;46.34
5905;BME280;2978;42.012;24.880;2023-02-02T01:38:12;98820.72;;;7.43;46.74
5905;BME280;2978;42.012;24.880;2023-02-02T01:40:44;98816.22;;;7.54;46.04
5905;BME280;2978;42.012;24.880;2023-02-02T01:45:57;98802.09;;;7.62;46.38
5905;BME280;2978;42.012;24.880;2023-02-02T01:48:28;98820.13;;;7.58;46.37
5905;BME280;2978;42.012;24.880;2023-02-02T01:50:57;98821.50;;;7.60;46.34
5905;BME280;2978;42.012;24.880;2023-02-02T01:53:24;98822.66;;;7.64;46.06
5905;BME280;2978;42.012;24.880;2023-02-02T01:55:51;98822.28;;;7.77;45.91
5905;BME280;2978;42.012;24.880;2023-02-02T01:58:25;98820.81;;;7.70;45.75
5905;BME280;2978;42.012;24.880;2023-02-02T02:00:52;98823.16;;;7.61;46.41
5905;BME280;2978;42.012;24.880;2023-02-02T02:03:30;98829.13;;;7.58;46.49
5905;BME280;2978;42.012;24.880;2023-02-02T02:06:00;98837.97;;;7.44;47.27
5905;BME280;2978;42.012;24.880;2023-02-02T02:08:40;98839.75;;;7.33;47.71
5905;BME280;2978;42.012;24.880;2023-02-02T02:11:07;98836.25;;;7.38;47.30
5905;BME280;2978;42.012;24.880;2023-02-02T02:13:36;98827.72;;;7.34;47.97
5905;BME280;2978;42.012;24.880;2023-02-02T02:30:55;98817.38;;;6.81;49.51
5905;BME280;2978;42.012;24.880;2023-02-02T02:33:40;98824.59;;;6.71;49.64
5905;BME280;2978;42.012;24.880;2023-02-02T02:39:04;98815.31;;;6.55;50.59
5905;BME280;2978;42.012;24.880;2023-02-02T02:41:38;98825.16;;;6.56;50.64
5905;BME280;2978;42.012;24.880;2023-02-02T02:44:08;98837.84;;;6.62;49.95
5905;BME280;2978;42.012;24.880;2023-02-02T02:46:35;98829.22;;;6.70;50.17
5905;BME280;2978;42.012;24.880;2023-02-02T02:49:02;98823.00;;;6.75;49.96
5905;BME280;2978;42.012;24.880;2023-02-02T02:51:48;98821.75;;;6.82;50.03
5905;BME280;2978;42.012;24.880;2023-02-02T02:54:17;98815.53;;;6.87;49.53
5905;BME280;2978;42.012;24.880;2023-02-02T03:05:28;98802.97;;;6.69;50.06
5905;BME280;2978;42.012;24.880;2023-02-02T03:08:00;98801.50;;;6.62;50.59
5905;BME280;2978;42.012;24.880;2023-02-02T03:10:29;98800.66;;;6.61;50.47
5905;BME280;2978;42.012;24.880;2023-02-02T03:12:56;98799.34;;;6.64;51.11
5905;BME280;2978;42.012;24.880;2023-02-02T03:15:21;98802.56;;;6.61;50.28
5905;BME280;2978;42.012;24.880;2023-02-02T03:17:49;98799.50;;;6.57;50.22
5905;BME280;2978;42.012;24.880;2023-02-02T03:20:16;98787.25;;;6.43;51.58
5905;BME280;2978;42.012;24.880;2023-02-02T03:22:41;98798.28;;;6.48;51.34
5905;BME280;2978;42.012;24.880;2023-02-02T03:25:07;98798.44;;;6.58;51.07
5905;BME280;2978;42.012;24.880;2023-02-02T03:27:39;98798.84;;;6.67;50.69
5905;BME280;2978;42.012;24.880;2023-02-02T03:30:08;98796.53;;;6.75;50.50
5905;BME280;2978;42.012;24.880;2023-02-02T03:32:35;98784.59;;;6.81;50.39
5905;BME280;2978;42.012;24.880;2023-02-02T03:35:01;98793.53;;;6.94;49.92
5905;BME280;2978;42.012;24.880;2023-02-02T03:37:27;98796.16;;;7.05;50.35
5905;BME280;2978;42.012;24.880;2023-02-02T03:39:52;98780.72;;;7.16;49.66
5905;BME280;2978;42.012;24.880;2023-02-02T03:42:18;98790.06;;;7.20;49.23
5905;BME280;2978;42.012;24.880;2023-02-02T03:44:43;98784.34;;;7.21;49.79
5905;BME280;2978;42.012;24.880;2023-02-02T03:47:08;98792.63;;;7.26;49.78
5905;BME280;2978;42.012;24.880;2023-02-02T03:49:34;98787.47;;;7.30;49.89
5905;BME280;2978;42.012;24.880;2023-02-02T03:51:59;98797.53;;;7.46;48.96
5905;BME280;2978;42.012;24.880;2023-02-02T03:54:27;98777.81;;;7.44;48.71
5905;BME280;2978;42.012;24.880;2023-02-02T03:56:52;98789.38;;;7.51;48.28
5905;BME280;2978;42.012;24.880;2023-02-02T03:59:17;98779.72;;;7.65;48.27
5905;BME280;2978;42.012;24.880;2023-02-02T04:01:43;98775.44;;;7.74;47.80
5905;BME280;2978;42.012;24.880;2023-02-02T04:04:08;98768.34;;;7.78;48.16
5905;BME280;2978;42.012;24.880;2023-02-02T04:06:34;98775.94;;;7.71;47.49
5905;BME280;2978;42.012;24.880;2023-02-02T04:08:59;98776.97;;;7.65;47.70
5905;BME280;2978;42.012;24.880;2023-02-02T04:11:24;98781.34;;;7.66;47.81
5905;BME280;2978;42.012;24.880;2023-02-02T04:13:50;98774.81;;;7.67;47.74
5905;BME280;2978;42.012;24.880;2023-02-02T04:16:15;98788.09;;;7.80;46.98
5905;BME280;2978;42.012;24.880;2023-02-02T04:18:41;98758.50;;;7.77;47.11
5905;BME280;2978;42.012;24.880;2023-02-02T04:21:07;98765.28;;;7.96;46.73
5905;BME280;2978;42.012;24.880;2023-02-02T04:23:33;98770.63;;;8.13;45.92
5905;BME280;2978;42.012;24.880;2023-02-02T04:25:59;98767.78;;;8.24;45.54
5905;BME280;2978;42.012;24.880;2023-02-02T04:28:25;98773.84;;;8.26;45.17
5905;BME280;2978;42.012;24.880;2023-02-02T04:30:52;98774.06;;;8.25;45.30
5905;BME280;2978;42.012;24.880;2023-02-02T04:33:18;98767.88;;;8.34;45.83
5905;BME280;2978;42.012;24.880;2023-02-02T04:35:44;98773.50;;;8.54;44.77
5905;BME280;2978;42.012;24.880;2023-02-02T04:38:10;98786.69;;;8.57;45.09
5905;BME280;2978;42.012;24.880;2023-02-02T04:40:40;98783.78;;;8.37;45.34
5905;BME280;2978;42.012;24.880;2023-02-02T04:43:06;98783.69;;;8.27;45.72
5905;BME280;2978;42.012;24.880;2023-02-02T04:45:31;98792.91;;;8.21;46.47
5905;BME280;2978;42.012;24.880;2023-02-02T04:47:57;98791.22;;;8.15;46.55
5905;BME280;2978;42.012;24.880;2023-02-02T04:50:22;98787.28;;;8.06;45.69
5905;BME280;2978;42.012;24.880;2023-02-02T04:52:48;98789.13;;;8.00;46.28
5905;BME280;2978;42.012;24.880;2023-02-02T04:55:13;98790.50;;;7.98;45.79
5905;BME280;2978;42.012;24.880;2023-02-02T04:57:39;98797.59;;;7.99;45.02
5905;BME280;2978;42.012;24.880;2023-02-02T05:00:05;98791.72;;;8.12;44.27
5905;BME280;2978;42.012;24.880;2023-02-02T05:02:34;98787.94;;;8.18;43.99
5905;BME280;2978;42.012;24.880;2023-02-02T05:05:00;98797.81;;;8.19;43.67
5905;BME280;2978;42.012;24.880;2023-02-02T05:07:25;98801.69;;;8.23;43.44
5905;BME280;2978;42.012;24.880;2023-02-02T05:09:50;98806.75;;;8.31;42.88
5905;BME280;2978;42.012;24.880;2023-02-02T05:12:16;98801.88;;;8.38;43.06
5905;BME280;2978;42.012;24.880;2023-02-02T05:14:41;98808.22;;;8.44;42.67
5905;BME280;2978;42.012;24.880;2023-02-02T05:17:07;98800.81;;;8.44;42.74
5905;BME280;2978;42.012;24.880;2023-02-02T05:19:32;98798.16;;;8.54;42.02
5905;BME280;2978;42.012;24.880;2023-02-02T05:21:58;98800.97;;;8.59;41.84
5905;BME280;2978;42.012;24.880;2023-02-02T05:24:23;98798.44;;;8.53;41.62
5905;BME280;2978;42.012;24.880;2023-02-02T05:26:48;98801.97;;;8.48;42.15
5905;BME280;2978;42.012;24.880;2023-02-02T05:29:14;98809.91;;;8.50;42.26
5905;BME280;2978;42.012;24.880;2023-02-02T05:31:39;98811.63;;;8.56;41.27
5905;BME280;2978;42.012;24.880;2023-02-02T05:34:04;98807.75;;;8.52;41.55
5905;BME280;2978;42.012;24.880;2023-02-02T05:36:31;98811.81;;;8.49;41.70
5905;BME280;2978;42.012;24.880;2023-02-02T05:38:57;98815.69;;;8.53;41.00
5905;BME280;2978;42.012;24.880;2023-02-02T05:41:22;98804.22;;;8.56;41.10
5905;BME280;2978;42.012;24.880;2023-02-02T05:43:48;98817.94;;;8.61;41.40
5905;BME280;2978;42.012;24.880;2023-02-02T05:46:13;98823.00;;;8.74;40.69
5905;BME280;2978;42.012;24.880;2023-02-02T05:48:38;98836.44;;;8.76;41.11
5905;BME280;2978;42.012;24.880;2023-02-02T05:51:17;98827.34;;;8.70;40.60
5905;BME280;2978;42.012;24.880;2023-02-02T05:53:44;98837.81;;;8.73;40.14
5905;BME280;2978;42.012;24.880;2023-02-02T05:56:10;98826.31;;;8.76;40.19
5905;BME280;2978;42.012;24.880;2023-02-02T05:58:35;98836.22;;;8.82;40.09
5905;BME280;2978;42.012;24.880;2023-02-02T06:01:02;98829.13;;;8.86;40.28
5905;BME280;2978;42.012;24.880;2023-02-02T06:03:27;98834.91;;;8.90;40.03
5905;BME280;2978;42.012;24.880;2023-02-02T06:05:53;98830.84;;;8.92;40.13
5905;BME280;2978;42.012;24.880;2023-02-02T06:08:18;98835.22;;;8.93;39.81
5905;BME280;2978;42.012;24.880;2023-02-02T06:10:44;98834.41;;;8.98;39.89
5905;BME280;2978;42.012;24.880;2023-02-02T06:13:09;98840.78;;;9.03;39.82
5905;BME280;2978;42.012;24.880;2023-02-02T06:15:35;98842.44;;;9.04;39.31
5905;BME280;2978;42.012;24.880;2023-02-02T06:18:01;98849.13;;;9.19;39.34
5905;BME280;2978;42.012;24.880;2023-02-02T06:20:27;98847.22;;;9.24;39.34
5905;BME280;2978;42.012;24.880;2023-02-02T06:22:52;98851.16;;;9.38;39.08
5905;BME280;2978;42.012;24.880;2023-02-02T06:25:18;98845.50;;;9.55;39.10
5905;BME280;2978;42.012;24.880;2023-02-02T06:27:43;98849.09;;;9.55;38.87
5905;BME280;2978;42.012;24.880;2023-02-02T06:30:11;98854.00;;;9.53;38.61
5905;BME280;2978;42.012;24.880;2023-02-02T06:32:37;98855.94;;;9.58;38.60
5905;BME280;2978;42.012;24.880;2023-02-02T06:35:03;98870.78;;;9.62;38.56
5905;BME280;2978;42.012;24.880;2023-02-02T06:37:29;98872.41;;;9.58;38.44
5905;BME280;2978;42.012;24.880;2023-02-02T06:39:54;98880.31;;;9.49;38.82
5905;BME280;2978;42.012;24.880;2023-02-02T06:42:20;98866.31;;;9.51;38.62
5905;BME280;2978;42.012;24.880;2023-02-02T06:44:45;98869.63;;;9.53;38.96
5905;BME280;2978;42.012;24.880;2023-02-02T06:47:11;98867.47;;;9.55;38.76
5905;BME280;2978;42.012;24.880;2023-02-02T06:49:36;98873.00;;;9.65;38.31
5905;BME280;2978;42.012;24.880;2023-02-02T06:52:02;98870.84;;;9.72;38.32
5905;BME280;2978;42.012;24.880;2023-02-02T06:54:27;98865.31;;;9.67;38.36
5905;BME280;2978;42.012;24.880;2023-02-02T06:56:52;98878.78;;;9.68;38.27
5905;BME280;2978;42.012;24.880;2023-02-02T06:59:19;98870.59;;;9.83;38.32
5905;BME280;2978;42.012;24.880;2023-02-02T07:01:48;98852.81;;;9.96;37.70
5905;BME280;2978;42.012;24.880;2023-02-02T07:04:13;98868.53;;;10.05;38.20
5905;BME280;2978;42.012;24.880;2023-02-02T07:06:38;98863.59;;;10.07;37.53
5905;BME280;2978;42.012;24.880;2023-02-02T07:09:04;98859.81;;;10.18;37.73
5905;BME280;2978;42.012;24.880;2023-02-02T07:11:30;98865.06;;;10.25;37.58
5905;BME280;2978;42.012;24.880;2023-02-02T07:13:56;98876.06;;;10.25;37.58
5905;BME280;2978;42.012;24.880;2023-02-02T07:16:21;98884.28;;;10.25;37.57
5905;BME280;2978;42.012;24.880;2023-02-02T07:18:47;98871.38;;;10.31;38.01
5905;BME280;2978;42.012;24.880;2023-02-02T07:21:21;98881.03;;;10.43;37.31
5905;BME280;2978;42.012;24.880;2023-02-02T07:23:47;98887.06;;;10.35;37.65
5905;BME280;2978;42.012;24.880;2023-02-02T07:26:13;98895.81;;;10.27;37.89
5905;BME280;2978;42.012;24.880;2023-02-02T07:28:39;98885.09;;;10.26;37.15
5905;BME280;2978;42.012;24.880;2023-02-02T07:31:16;98898.03;;;10.30;37.64
5905;BME280;2978;42.012;24.880;2023-02-02T07:33:43;98904.63;;;10.34;37.07
5905;BME280;2978;42.012;24.880;2023-02-02T07:36:10;98896.38;;;10.34;37.54
5905;BME280;2978;42.012;24.880;2023-02-02T07:38:36;98889.25;;;10.28;37.78
5905;BME280;2978;42.012;24.880;2023-02-02T07:41:02;98891.16;;;10.33;37.89
5905;BME280;2978;42.012;24.880;2023-02-02T07:43:28;98895.31;;;10.35;37.80
5905;BME280;2978;42.012;24.880;2023-02-02T07:45:53;98890.94;;;10.44;37.46
5905;BME280;2978;42.012;24.880;2023-02-02T07:48:19;98901.97;;;10.54;37.34
5905;BME280;2978;42.012;24.880;2023-02-02T07:50:45;98893.72;;;10.64;38.08
5905;BME280;2978;42.012;24.880;2023-02-02T07:53:10;98892.09;;;10.73;37.92
5905;BME280;2978;42.012;24.880;2023-02-02T07:55:36;98888.28;;;10.89;37.40
5905;BME280;2978;42.012;24.880;2023-02-02T07:58:01;98896.22;;;11.16;37.36
5905;BME280;2978;42.012;24.880;2023-02-02T08:00:27;98885.22;;;11.36;36.97
5905;BME280;2978;42.012;24.880;2023-02-02T08:02:53;98870.09;;;11.44;35.43
5905;BME280;2978;42.012;24.880;2023-02-02T08:05:19;98873.09;;;11.52;34.85
5905;BME280;2978;42.012;24.880;2023-02-02T08:07:46;98876.63;;;11.58;34.54
5905;BME280;2978;42.012;24.880;2023-02-02T08:10:12;98882.72;;;11.65;34.99
5905;BME280;2978;42.012;24.880;2023-02-02T08:12:38;98871.44;;;11.51;34.03
5905;BME280;2978;42.012;24.880;2023-02-02T08:15:03;98885.72;;;11.58;34.91
5905;BME280;2978;42.012;24.880;2023-02-02T08:17:29;98883.81;;;11.64;34.63
5905;BME280;2978;42.012;24.880;2023-02-02T08:19:54;98889.06;;;11.55;34.59
5905;BME280;2978;42.012;24.880;2023-02-02T08:22:20;98888.81;;;11.42;34.84
5905;BME280;2978;42.012;24.880;2023-02-02T08:24:45;98887.69;;;11.38;34.21
5905;BME280;2978;42.012;24.880;2023-02-02T08:27:10;98887.13;;;11.56;34.48
5905;BME280;2978;42.012;24.880;2023-02-02T08:29:37;98890.69;;;11.76;33.92
5905;BME280;2978;42.012;24.880;2023-02-02T08:32:03;98862.25;;;11.91;34.09
5905;BME280;2978;42.012;24.880;2023-02-02T08:34:29;98872.19;;;11.92;33.88
5905;BME280;2978;42.012;24.880;2023-02-02T08:36:55;98868.69;;;11.66;33.64
5905;BME280;2978;42.012;24.880;2023-02-02T08:39:20;98872.00;;;11.48;34.46
5905;BME280;2978;42.012;24.880;2023-02-02T08:41:46;98862.94;;;11.32;34.25
5905;BME280;2978;42.012;24.880;2023-02-02T08:44:14;98861.00;;;11.38;34.45
5905;BME280;2978;42.012;24.880;2023-02-02T08:46:40;98858.53;;;11.31;33.96
5905;BME280;2978;42.012;24.880;2023-02-02T08:49:08;98865.13;;;11.30;34.38
5905;BME280;2978;42.012;24.880;2023-02-02T08:51:34;98889.09;;;11.25;34.58
5905;BME280;2978;42.012;24.880;2023-02-02T08:54:11;98865.16;;;11.10;34.37
5905;BME280;2978;42.012;24.880;2023-02-02T08:56:37;98871.47;;;11.11;34.90
5905;BME280;2978;42.012;24.880;2023-02-02T08:59:03;98875.88;;;11.22;35.42
5905;BME280;2978;42.012;24.880;2023-02-02T09:04:42;98870.09;;;11.44;34.72
5905;BME280;2978;42.012;24.880;2023-02-02T09:07:10;98865.66;;;11.48;34.12
5905;BME280;2978;42.012;24.880;2023-02-02T09:52:24;98795.63;;;12.37;33.00
5905;BME280;2978;42.012;24.880;2023-02-02T09:55:03;98790.88;;;12.43;32.40
5905;BME280;2978;42.012;24.880;2023-02-02T09:57:44;98802.16;;;12.52;32.06
5905;BME280;2978;42.012;24.880;2023-02-02T10:00:28;98793.78;;;12.62;31.41
5905;BME280;2978;42.012;24.880;2023-02-02T10:03:12;98781.59;;;12.68;31.94
5905;BME280;2978;42.012;24.880;2023-02-02T10:05:57;98792.56;;;12.78;31.97
5905;BME280;2978;42.012;24.880;2023-02-02T10:08:32;98789.75;;;12.83;31.42
5905;BME280;2978;42.012;24.880;2023-02-02T10:11:02;98781.78;;;12.76;31.54
5905;BME280;2978;42.012;24.880;2023-02-02T10:13:32;98772.72;;;12.76;31.46
5905;BME280;2978;42.012;24.880;2023-02-02T10:16:17;98772.47;;;12.72;31.72
5905;BME280;2978;42.012;24.880;2023-02-02T10:18:58;98785.81;;;12.60;32.10
5905;BME280;2978;42.012;24.880;2023-02-02T10:21:53;98764.88;;;12.54;32.17
5905;BME280;2978;42.012;24.880;2023-02-02T10:24:24;98766.84;;;12.48;32.82
5905;BME280;2978;42.012;24.880;2023-02-02T10:26:55;98762.16;;;12.49;32.51
5905;BME280;2978;42.012;24.880;2023-02-02T10:45:39;98734.59;;;12.49;34.38
5905;BME280;2978;42.012;24.880;2023-02-02T10:48:19;98734.25;;;12.56;34.62
5905;BME280;2978;42.012;24.880;2023-02-02T10:50:53;98737.75;;;12.66;33.77
5905;BME280;2978;42.012;24.880;2023-02-02T10:53:19;98728.44;;;12.57;33.95
5905;BME280;2978;42.012;24.880;2023-02-02T10:56:05;98716.81;;;12.65;33.64
5905;BME280;2978;42.012;24.880;2023-02-02T11:01:21;98692.28;;;12.64;34.22
5905;BME280;2978;42.012;24.880;2023-02-02T11:03:47;98708.56;;;12.89;34.01
5905;BME280;2978;42.012;24.880;2023-02-02T11:06:13;98692.53;;;12.91;33.83
5905;BME280;2978;42.012;24.880;2023-02-02T11:08:58;98692.16;;;13.07;33.42
5905;BME280;2978;42.012;24.880;2023-02-02T11:11:34;98689.78;;;13.19;33.01
5905;BME280;2978;42.012;24.880;2023-02-02T11:16:39;98678.16;;;13.22;32.95
5905;BME280;2978;42.012;24.880;2023-02-02T11:28:26;98660.41;;;13.89;32.26
5905;BME280;2978;42.012;24.880;2023-02-02T11:31:34;98654.91;;;13.89;31.88
5905;BME280;2978;42.012;24.880;2023-02-02T11:37:21;98639.03;;;14.13;31.35
5905;BME280;2978;42.012;24.880;2023-02-02T11:39:47;98632.88;;;14.16;30.21
5905;BME280;2978;42.012;24.880;2023-02-02T11:44:45;98620.34;;;14.05;29.90
5905;BME280;2978;42.012;24.880;2023-02-02T11:47:20;98618.50;;;14.01;29.22
5905;BME280;2978;42.012;24.880;2023-02-02T11:49:47;98607.22;;;13.97;29.40
5905;BME280;2978;42.012;24.880;2023-02-02T11:52:18;98603.72;;;13.92;29.44
5905;BME280;2978;42.012;24.880;2023-02-02T11:54:50;98602.59;;;13.93;29.43
5905;BME280;2978;42.012;24.880;2023-02-02T11:57:19;98597.00;;;13.98;29.72
5905;BME280;2978;42.012;24.880;2023-02-02T11:59:48;98601.94;;;14.14;29.07
5905;BME280;2978;42.012;24.880;2023-02-02T12:02:25;98594.91;;;14.22;29.38
5905;BME280;2978;42.012;24.880;2023-02-02T12:05:10;98582.88;;;14.31;28.91
5905;BME280;2978;42.012;24.880;2023-02-02T12:07:41;98584.25;;;14.61;28.93
5905;BME280;2978;42.012;24.880;2023-02-02T12:30:00;98568.72;;;14.92;27.17
5905;BME280;2978;42.012;24.880;2023-02-02T12:41:20;98559.06;;;15.44;26.73
5905;BME280;2978;42.012;24.880;2023-02-02T12:44:01;98545.31;;;15.25;26.46
5905;BME280;2978;42.012;24.880;2023-02-02T12:46:52;98568.28;;;15.39;26.97
5905;BME280;2978;42.012;24.880;2023-02-02T12:49:58;98564.47;;;15.35;27.21
5905;BME280;2978;42.012;24.880;2023-02-02T13:08:20;98550.75;;;14.49;28.78
5905;BME280;2978;42.012;24.880;2023-02-02T13:10:57;98552.22;;;14.60;28.84
5905;BME280;2978;42.012;24.880;2023-02-02T13:13:29;98556.81;;;14.51;28.65
5905;BME280;2978;42.012;24.880;2023-02-02T13:16:23;98556.59;;;14.61;29.33
5905;BME280;2978;42.012;24.880;2023-02-02T13:18:57;98538.16;;;14.56;29.15
5905;BME280;2978;42.012;24.880;2023-02-02T13:21:26;98557.44;;;14.61;29.26
5905;BME280;2978;42.012;24.880;2023-02-02T13:23:58;98551.16;;;14.56;29.61
5905;BME280;2978;42.012;24.880;2023-02-02T13:26:31;98552.50;;;14.45;29.50
5905;BME280;2978;42.012;24.880;2023-02-02T13:29:04;98547.25;;;14.30;29.30
5905;BME280;2978;42.012;24.880;2023-02-02T13:31:50;98552.81;;;14.11;30.09
5905;BME280;2978;42.012;24.880;2023-02-02T13:34:26;98549.31;;;14.06;30.09
5905;BME280;2978;42.012;24.880;2023-02-02T13:36:56;98549.31;;;14.06;30.06
5905;BME280;2978;42.012;24.880;2023-02-02T13:39:33;98552.41;;;14.18;30.20
5905;BME280;2978;42.012;24.880;2023-02-02T13:42:00;98541.34;;;14.18;29.95
5905;BME280;2978;42.012;24.880;2023-02-02T13:44:35;98547.91;;;14.22;29.66
5905;BME280;2978;42.012;24.880;2023-02-02T13:47:07;98548.78;;;14.36;29.51
5905;BME280;2978;42.012;24.880;2023-02-02T13:49:40;98551.06;;;14.47;29.39
5905;BME280;2978;42.012;24.880;2023-02-02T14:02:46;98545.97;;;14.95;28.27
5905;BME280;2978;42.012;24.880;2023-02-02T14:08:07;98550.06;;;14.84;28.40
5905;BME280;2978;42.012;24.880;2023-02-02T14:10:56;98540.34;;;14.73;28.79
5905;BME280;2978;42.012;24.880;2023-02-02T14:13:49;98539.41;;;14.64;29.16
5905;BME280;2978;42.012;24.880;2023-02-02T14:19:12;98540.00;;;14.61;29.63
5905;BME280;2978;42.012;24.880;2023-02-02T14:26:45;98540.63;;;14.58;29.72
5905;BME280;2978;42.012;24.880;2023-02-02T14:40:25;98604.84;;;13.53;36.49
5905;BME280;2978;42.012;24.880;2023-02-02T14:48:41;98606.59;;;12.79;39.62
5905;BME280;2978;42.012;24.880;2023-02-02T14:51:27;98605.78;;;12.78;40.37
5905;BME280;2978;42.012;24.880;2023-02-02T14:54:04;98605.13;;;12.63;40.90
5905;BME280;2978;42.012;24.880;2023-02-02T14:56:44;98615.91;;;12.59;40.67
5905;BME280;2978;42.012;24.880;2023-02-02T15:02:00;98621.97;;;12.61;41.41
5905;BME280;2978;42.012;24.880;2023-02-02T15:04:28;98622.03;;;12.56;41.71
5905;BME280;2978;42.012;24.880;2023-02-02T15:06:53;98615.66;;;12.56;41.50
5905;BME280;2978;42.012;24.880;2023-02-02T15:14:52;98605.19;;;12.58;41.43
5905;BME280;2978;42.012;24.880;2023-02-02T15:25:49;98581.00;;;12.50;40.16
5905;BME280;2978;42.012;24.880;2023-02-02T15:33:37;98584.97;;;12.38;38.92
5905;BME280;2978;42.012;24.880;2023-02-02T15:36:31;98594.06;;;12.39;38.75
5905;BME280;2978;42.012;24.880;2023-02-02T15:39:02;98599.88;;;12.37;38.79
5905;BME280;2978;42.012;24.880;2023-02-02T15:41:32;98593.34;;;12.28;38.94
5905;BME280;2978;42.012;24.880;2023-02-02T15:43:59;98617.22;;;12.38;38.92
5905;BME280;2978;42.012;24.880;2023-02-02T15:46:28;98613.19;;;12.30;39.18
5905;BME280;2978;42.012;24.880;2023-02-02T15:51:48;98631.94;;;12.28;39.41
5905;BME280;2978;42.012;24.880;2023-02-02T15:54:26;98640.53;;;12.22;39.12
5905;BME280;2978;42.012;24.880;2023-02-02T15:56:52;98640.22;;;12.28;38.90
5905;BME280;2978;42.012;24.880;2023-02-02T15:59:24;98646.50;;;12.34;39.24
5905;BME280;2978;42.012;24.880;2023-02-02T16:04:35;98652.22;;;12.42;39.18
5905;BME280;2978;42.012;24.880;2023-02-02T16:07:06;98661.25;;;12.48;40.07
5905;BME280;2978;42.012;24.880;2023-02-02T16:09:36;98659.59;;;12.47;40.04
5905;BME280;2978;42.012;24.880;2023-02-02T16:12:04;98657.22;;;12.35;39.64
5905;BME280;2978;42.012;24.880;2023-02-02T16:14:31;98649.56;;;12.32;40.46
5905;BME280;2978;42.012;24.880;2023-02-02T16:19:42;98675.38;;;12.41;40.79
5905;BME280;2978;42.012;24.880;2023-02-02T16:22:14;98697.47;;;12.36;40.63
5905;BME280;2978;42.012;24.880;2023-02-02T16:24:45;98709.38;;;12.32;40.38
5905;BME280;2978;42.012;24.880;2023-02-02T16:27:14;98711.88;;;12.28;40.38
5905;BME280;2978;42.012;24.880;2023-02-02T16:29:42;98742.53;;;12.22;40.67
5905;BME280;2978;42.012;24.880;2023-02-02T16:32:24;98774.22;;;12.19;40.68
5905;BME280;2978;42.012;24.880;2023-02-02T16:34:50;98803.31;;;11.92;42.28
5905;BME280;2978;42.012;24.880;2023-02-02T16:37:30;98842.59;;;11.13;45.87
5905;BME280;2978;42.012;24.880;2023-02-02T16:40:23;98862.34;;;10.50;50.03
5905;BME280;2978;42.012;24.880;2023-02-02T16:43:04;98890.59;;;9.69;60.99
5905;BME280;2978;42.012;24.880;2023-02-02T16:45:39;98902.44;;;8.69;69.82
5905;BME280;2978;42.012;24.880;2023-02-02T16:48:36;98929.13;;;8.09;75.71
5905;BME280;2978;42.012;24.880;2023-02-02T16:53:40;98965.78;;;7.32;81.24
5905;BME280;2978;42.012;24.880;2023-02-02T16:56:06;98970.50;;;7.20;84.17
5905;BME280;2978;42.012;24.880;2023-02-02T16:58:37;98982.84;;;7.06;85.14
5905;BME280;2978;42.012;24.880;2023-02-02T17:01:08;98981.38;;;7.15;86.50
5905;BME280;2978;42.012;24.880;2023-02-02T17:03:42;98993.78;;;7.22;87.75
5905;BME280;2978;42.012;24.880;2023-02-02T17:06:09;99012.75;;;7.29;87.47
5905;BME280;2978;42.012;24.880;2023-02-02T17:08:37;99020.16;;;7.28;86.36
5905;BME280;2978;42.012;24.880;2023-02-02T17:11:26;99027.44;;;7.23;87.51
5905;BME280;2978;42.012;24.880;2023-02-02T17:13:52;99025.00;;;7.10;88.68
5905;BME280;2978;42.012;24.880;2023-02-02T17:16:21;99032.28;;;7.04;87.95
5905;BME280;2978;42.012;24.880;2023-02-02T17:18:47;99048.63;;;6.88;90.62
5905;BME280;2978;42.012;24.880;2023-02-02T17:21:21;99046.00;;;6.93;90.90